Burton, WV (26562)

3:47 AM EDT on April 21, 2015 (GMT -0400)
Curtisville | | Change Station
CLOSE
Current Station
Personal Weather Station
Location: Mannington, WV
Elevation: 1017 ft
Nearby Weather Stations

Elev 1017 ft 39.52 °N, 80.44 °W | Updated 6 minutes ago

Overcast
Overcast
47.5 °F
Feels Like 48 °F
N
0.0
Wind Variable Wind from ESE

Today
High -- | Low -- °F
--% Chance of Precip.
Yesterday
High -- | Low -- °F
Precip. -- in
6:35 AM 8:05 PM
Waxing Crescent, 9% visible
Pressure 29.73 in
Visibility 10.0 miles
Clouds Mostly Cloudy 6500 ft
Overcast 8000 ft
Windchill 48 °F
Dew Point 41 °F
Humidity 79%
Rainfall 0.02 in
Snow Depth Not available.
UV 0 out of 12
Pollen 4.90 out of 12
Air Quality Not available.
Flu Activity Sporadic
METAR KMGW 210653Z AUTO 21004KT 10SM BKN065 OVC080 09/04 A2975 RMK AO2 SLP067 T00940044 TSNO

More Conditions Fewer Conditions

Pressure 29.73 in
Visibility 10.0 miles
Clouds Mostly Cloudy 6500 ft
Overcast 8000 ft
Windchill 48 °F
Dew Point 41 °F
Humidity 79%
Rainfall 0.02 in
Snow Depth Not available.
UV 0 out of 12
Pollen 4.90 out of 12
Air Quality Not available.
Flu Activity Sporadic
METAR KMGW 210653Z AUTO 21004KT 10SM BKN065 OVC080 09/04 A2975 RMK AO2 SLP067 T00940044 TSNO

More Conditions Fewer Conditions

10-Day Weather Forecast

Almanac

Astronomy

Apr. 21, 2015 Rise Set
Actual Time
Civil Twilight
Nautical Twilight
Astronomical Twilight
Moon
Length of Visible Light
Length of Day
Tomorrow will be .
, % of the Moon is Illuminated

Today's Extremes

State Highs State Lows

Community

WunderPhotos

Upload Photos

1,815,324 photos uploaded!

WunderBlogs® & News

Nearby

Air Quality

  Air Quality AQ Index Pollutant
Not available.

Snow Depth

Station Depth Elevation

Earthquake Activity

City Distance Mag. Time & Date
Minimum magnitude displayed is 2.5.

Coastal Water Temperatures

Place Temperature

Stations

Nearby Weather Stations

Station Location Temp. Windchill Dew Point Humidity Wind Precip. Elev Updated Type